<?xml version="1.0" encoding="UTF-8" standalone="no" ?>
<gpx xmlns="http://www.topografix.com/GPX/1/1" xmlns:xsi="http://www.w3.org/2001/XMLSchema-instance" xsi:schemaLocation="http://www.topografix.com/GPX/1/1 http://www.topografix.com/GPX/1/1/gpx.xsd" version="1.1" creator="VisuGPX - https://www.visugpx.com">
  <metadata>
    <name>Éguilles - Les Figons</name>
  </metadata>
  <trk>
    <name><![CDATA[Éguilles - Les Figons_1]]></name>
    <trkseg>
      <trkpt lat="43.56208" lon="5.37581">
        <ele>315.6</ele>
        <time>2022-11-22T13:04:24Z</time>
      </trkpt>
      <trkpt lat="43.5621" lon="5.37582">
        <ele>315.6</ele>
        <time>2022-11-22T13:04:45Z</time>
      </trkpt>
      <trkpt lat="43.56211" lon="5.3758">
        <ele>315.6</ele>
        <time>2022-11-22T13:05:05Z</time>
      </trkpt>
      <trkpt lat="43.56218" lon="5.37571">
        <ele>315.6</ele>
        <time>2022-11-22T13:05:26Z</time>
      </trkpt>
      <trkpt lat="43.56224" lon="5.3755">
        <ele>299</ele>
        <time>2022-11-22T13:05:46Z</time>
      </trkpt>
      <trkpt lat="43.56236" lon="5.37528">
        <ele>300</ele>
        <time>2022-11-22T13:06:07Z</time>
      </trkpt>
      <trkpt lat="43.5625" lon="5.37511">
        <ele>303</ele>
        <time>2022-11-22T13:06:27Z</time>
      </trkpt>
      <trkpt lat="43.56262" lon="5.37497">
        <ele>308</ele>
        <time>2022-11-22T13:06:48Z</time>
      </trkpt>
      <trkpt lat="43.56265" lon="5.37479">
        <ele>309</ele>
        <time>2022-11-22T13:07:08Z</time>
      </trkpt>
      <trkpt lat="43.56259" lon="5.37462">
        <ele>312</ele>
        <time>2022-11-22T13:07:29Z</time>
      </trkpt>
      <trkpt lat="43.56257" lon="5.37451">
        <ele>313</ele>
        <time>2022-11-22T13:07:49Z</time>
      </trkpt>
      <trkpt lat="43.56264" lon="5.37441">
        <ele>317</ele>
        <time>2022-11-22T13:08:09Z</time>
      </trkpt>
      <trkpt lat="43.56274" lon="5.37429">
        <ele>318</ele>
        <time>2022-11-22T13:08:30Z</time>
      </trkpt>
      <trkpt lat="43.56284" lon="5.37422">
        <ele>320</ele>
        <time>2022-11-22T13:08:50Z</time>
      </trkpt>
      <trkpt lat="43.56294" lon="5.37413">
        <ele>322</ele>
        <time>2022-11-22T13:09:11Z</time>
      </trkpt>
      <trkpt lat="43.56295" lon="5.37413">
        <ele>322</ele>
        <time>2022-11-22T13:09:31Z</time>
      </trkpt>
      <trkpt lat="43.56294" lon="5.37412">
        <ele>321</ele>
        <time>2022-11-22T13:09:52Z</time>
      </trkpt>
      <trkpt lat="43.56311" lon="5.37405">
        <ele>324</ele>
        <time>2022-11-22T13:10:12Z</time>
      </trkpt>
      <trkpt lat="43.56323" lon="5.37387">
        <ele>327</ele>
        <time>2022-11-22T13:10:33Z</time>
      </trkpt>
      <trkpt lat="43.56333" lon="5.37373">
        <ele>331</ele>
        <time>2022-11-22T13:10:53Z</time>
      </trkpt>
      <trkpt lat="43.56347" lon="5.37359">
        <ele>332</ele>
        <time>2022-11-22T13:11:14Z</time>
      </trkpt>
      <trkpt lat="43.56348" lon="5.37356">
        <ele>333</ele>
        <time>2022-11-22T13:11:35Z</time>
      </trkpt>
      <trkpt lat="43.56346" lon="5.37355">
        <ele>333</ele>
        <time>2022-11-22T13:11:55Z</time>
      </trkpt>
      <trkpt lat="43.56348" lon="5.3735">
        <ele>333</ele>
        <time>2022-11-22T13:12:16Z</time>
      </trkpt>
      <trkpt lat="43.56359" lon="5.37331">
        <ele>335</ele>
        <time>2022-11-22T13:12:36Z</time>
      </trkpt>
      <trkpt lat="43.56362" lon="5.37319">
        <ele>338</ele>
        <time>2022-11-22T13:12:57Z</time>
      </trkpt>
      <trkpt lat="43.56364" lon="5.37308">
        <ele>339</ele>
        <time>2022-11-22T13:13:17Z</time>
      </trkpt>
      <trkpt lat="43.56374" lon="5.37287">
        <ele>338</ele>
        <time>2022-11-22T13:13:38Z</time>
      </trkpt>
      <trkpt lat="43.5638" lon="5.37263">
        <ele>339</ele>
        <time>2022-11-22T13:13:58Z</time>
      </trkpt>
      <trkpt lat="43.56386" lon="5.37241">
        <ele>343</ele>
        <time>2022-11-22T13:14:18Z</time>
      </trkpt>
      <trkpt lat="43.56394" lon="5.37221">
        <ele>343</ele>
        <time>2022-11-22T13:14:39Z</time>
      </trkpt>
      <trkpt lat="43.56405" lon="5.37199">
        <ele>342</ele>
        <time>2022-11-22T13:15:00Z</time>
      </trkpt>
      <trkpt lat="43.56398" lon="5.37194">
        <ele>343</ele>
        <time>2022-11-22T13:15:21Z</time>
      </trkpt>
      <trkpt lat="43.56377" lon="5.37192">
        <ele>344</ele>
        <time>2022-11-22T13:15:42Z</time>
      </trkpt>
      <trkpt lat="43.56356" lon="5.37185">
        <ele>348</ele>
        <time>2022-11-22T13:16:03Z</time>
      </trkpt>
      <trkpt lat="43.56338" lon="5.37177">
        <ele>349</ele>
        <time>2022-11-22T13:16:23Z</time>
      </trkpt>
      <trkpt lat="43.56321" lon="5.37166">
        <ele>347</ele>
        <time>2022-11-22T13:16:44Z</time>
      </trkpt>
      <trkpt lat="43.56302" lon="5.37162">
        <ele>345</ele>
        <time>2022-11-22T13:17:04Z</time>
      </trkpt>
      <trkpt lat="43.56282" lon="5.37159">
        <ele>345</ele>
        <time>2022-11-22T13:17:25Z</time>
      </trkpt>
      <trkpt lat="43.56262" lon="5.37161">
        <ele>346</ele>
        <time>2022-11-22T13:17:46Z</time>
      </trkpt>
      <trkpt lat="43.5624" lon="5.37166">
        <ele>345</ele>
        <time>2022-11-22T13:18:07Z</time>
      </trkpt>
      <trkpt lat="43.56224" lon="5.37165">
        <ele>343</ele>
        <time>2022-11-22T13:18:28Z</time>
      </trkpt>
      <trkpt lat="43.56205" lon="5.37159">
        <ele>343</ele>
        <time>2022-11-22T13:18:48Z</time>
      </trkpt>
      <trkpt lat="43.56185" lon="5.37153">
        <ele>342</ele>
        <time>2022-11-22T13:19:09Z</time>
      </trkpt>
      <trkpt lat="43.56167" lon="5.37146">
        <ele>341</ele>
        <time>2022-11-22T13:19:29Z</time>
      </trkpt>
      <trkpt lat="43.56148" lon="5.37138">
        <ele>342</ele>
        <time>2022-11-22T13:19:50Z</time>
      </trkpt>
      <trkpt lat="43.56129" lon="5.37135">
        <ele>344</ele>
        <time>2022-11-22T13:20:10Z</time>
      </trkpt>
      <trkpt lat="43.56105" lon="5.37127">
        <ele>343</ele>
        <time>2022-11-22T13:20:31Z</time>
      </trkpt>
      <trkpt lat="43.561" lon="5.37119">
        <ele>344</ele>
        <time>2022-11-22T13:20:51Z</time>
      </trkpt>
      <trkpt lat="43.56099" lon="5.37119">
        <ele>344</ele>
        <time>2022-11-22T13:21:11Z</time>
      </trkpt>
      <trkpt lat="43.56099" lon="5.37118">
        <ele>343</ele>
        <time>2022-11-22T13:21:32Z</time>
      </trkpt>
      <trkpt lat="43.56091" lon="5.37104">
        <ele>343</ele>
        <time>2022-11-22T13:21:52Z</time>
      </trkpt>
      <trkpt lat="43.56075" lon="5.37088">
        <ele>342</ele>
        <time>2022-11-22T13:22:13Z</time>
      </trkpt>
      <trkpt lat="43.56058" lon="5.37077">
        <ele>341</ele>
        <time>2022-11-22T13:22:33Z</time>
      </trkpt>
      <trkpt lat="43.56038" lon="5.37071">
        <ele>340</ele>
        <time>2022-11-22T13:22:54Z</time>
      </trkpt>
      <trkpt lat="43.56023" lon="5.37068">
        <ele>341</ele>
        <time>2022-11-22T13:23:14Z</time>
      </trkpt>
      <trkpt lat="43.56004" lon="5.37073">
        <ele>341</ele>
        <time>2022-11-22T13:23:34Z</time>
      </trkpt>
      <trkpt lat="43.55987" lon="5.37078">
        <ele>345</ele>
        <time>2022-11-22T13:23:55Z</time>
      </trkpt>
      <trkpt lat="43.55972" lon="5.37082">
        <ele>348</ele>
        <time>2022-11-22T13:24:16Z</time>
      </trkpt>
      <trkpt lat="43.55954" lon="5.37092">
        <ele>347</ele>
        <time>2022-11-22T13:24:37Z</time>
      </trkpt>
      <trkpt lat="43.55937" lon="5.37109">
        <ele>348</ele>
        <time>2022-11-22T13:24:58Z</time>
      </trkpt>
      <trkpt lat="43.5592" lon="5.37117">
        <ele>350</ele>
        <time>2022-11-22T13:25:18Z</time>
      </trkpt>
      <trkpt lat="43.55903" lon="5.37123">
        <ele>348</ele>
        <time>2022-11-22T13:25:38Z</time>
      </trkpt>
      <trkpt lat="43.55881" lon="5.37135">
        <ele>348</ele>
        <time>2022-11-22T13:25:59Z</time>
      </trkpt>
      <trkpt lat="43.55863" lon="5.37144">
        <ele>348</ele>
        <time>2022-11-22T13:26:19Z</time>
      </trkpt>
      <trkpt lat="43.55842" lon="5.3716">
        <ele>344</ele>
        <time>2022-11-22T13:26:40Z</time>
      </trkpt>
      <trkpt lat="43.55823" lon="5.37167">
        <ele>343</ele>
        <time>2022-11-22T13:27:00Z</time>
      </trkpt>
      <trkpt lat="43.55805" lon="5.37181">
        <ele>345</ele>
        <time>2022-11-22T13:27:21Z</time>
      </trkpt>
      <trkpt lat="43.55784" lon="5.37183">
        <ele>345</ele>
        <time>2022-11-22T13:27:41Z</time>
      </trkpt>
      <trkpt lat="43.55763" lon="5.37173">
        <ele>343</ele>
        <time>2022-11-22T13:28:02Z</time>
      </trkpt>
      <trkpt lat="43.55748" lon="5.37167">
        <ele>340</ele>
        <time>2022-11-22T13:28:22Z</time>
      </trkpt>
      <trkpt lat="43.55742" lon="5.37163">
        <ele>337</ele>
        <time>2022-11-22T13:28:43Z</time>
      </trkpt>
      <trkpt lat="43.55739" lon="5.37165">
        <ele>334</ele>
        <time>2022-11-22T13:29:03Z</time>
      </trkpt>
      <trkpt lat="43.55719" lon="5.37162">
        <ele>332</ele>
        <time>2022-11-22T13:29:24Z</time>
      </trkpt>
      <trkpt lat="43.557" lon="5.37167">
        <ele>330</ele>
        <time>2022-11-22T13:29:45Z</time>
      </trkpt>
      <trkpt lat="43.55687" lon="5.3717">
        <ele>329</ele>
        <time>2022-11-22T13:30:05Z</time>
      </trkpt>
      <trkpt lat="43.5568" lon="5.37172">
        <ele>324</ele>
        <time>2022-11-22T13:30:26Z</time>
      </trkpt>
      <trkpt lat="43.55666" lon="5.37167">
        <ele>323</ele>
        <time>2022-11-22T13:30:47Z</time>
      </trkpt>
      <trkpt lat="43.55646" lon="5.37161">
        <ele>321</ele>
        <time>2022-11-22T13:31:08Z</time>
      </trkpt>
      <trkpt lat="43.55628" lon="5.37162">
        <ele>319</ele>
        <time>2022-11-22T13:31:28Z</time>
      </trkpt>
      <trkpt lat="43.55607" lon="5.37166">
        <ele>319</ele>
        <time>2022-11-22T13:31:49Z</time>
      </trkpt>
      <trkpt lat="43.55588" lon="5.37171">
        <ele>318</ele>
        <time>2022-11-22T13:32:10Z</time>
      </trkpt>
      <trkpt lat="43.55574" lon="5.37182">
        <ele>316</ele>
        <time>2022-11-22T13:32:30Z</time>
      </trkpt>
      <trkpt lat="43.55564" lon="5.37204">
        <ele>313</ele>
        <time>2022-11-22T13:32:51Z</time>
      </trkpt>
      <trkpt lat="43.55553" lon="5.3722">
        <ele>307</ele>
        <time>2022-11-22T13:33:11Z</time>
      </trkpt>
      <trkpt lat="43.55538" lon="5.37234">
        <ele>306</ele>
        <time>2022-11-22T13:33:32Z</time>
      </trkpt>
      <trkpt lat="43.55524" lon="5.37233">
        <ele>302</ele>
        <time>2022-11-22T13:33:52Z</time>
      </trkpt>
      <trkpt lat="43.55509" lon="5.37221">
        <ele>297</ele>
        <time>2022-11-22T13:34:13Z</time>
      </trkpt>
      <trkpt lat="43.55496" lon="5.37217">
        <ele>297</ele>
        <time>2022-11-22T13:34:33Z</time>
      </trkpt>
      <trkpt lat="43.55491" lon="5.3722">
        <ele>296</ele>
        <time>2022-11-22T13:34:54Z</time>
      </trkpt>
      <trkpt lat="43.55476" lon="5.37222">
        <ele>296</ele>
        <time>2022-11-22T13:35:14Z</time>
      </trkpt>
      <trkpt lat="43.5546" lon="5.37224">
        <ele>296</ele>
        <time>2022-11-22T13:35:35Z</time>
      </trkpt>
      <trkpt lat="43.55449" lon="5.37224">
        <ele>294</ele>
        <time>2022-11-22T13:35:55Z</time>
      </trkpt>
      <trkpt lat="43.5543" lon="5.37226">
        <ele>294</ele>
        <time>2022-11-22T13:36:16Z</time>
      </trkpt>
      <trkpt lat="43.55413" lon="5.3723">
        <ele>291</ele>
        <time>2022-11-22T13:36:37Z</time>
      </trkpt>
      <trkpt lat="43.55398" lon="5.3723">
        <ele>288</ele>
        <time>2022-11-22T13:36:57Z</time>
      </trkpt>
      <trkpt lat="43.55397" lon="5.37222">
        <ele>285</ele>
        <time>2022-11-22T13:37:17Z</time>
      </trkpt>
      <trkpt lat="43.55397" lon="5.37197">
        <ele>286</ele>
        <time>2022-11-22T13:37:37Z</time>
      </trkpt>
      <trkpt lat="43.55397" lon="5.3718">
        <ele>289</ele>
        <time>2022-11-22T13:37:58Z</time>
      </trkpt>
      <trkpt lat="43.55402" lon="5.37158">
        <ele>292</ele>
        <time>2022-11-22T13:38:18Z</time>
      </trkpt>
      <trkpt lat="43.55411" lon="5.37139">
        <ele>294</ele>
        <time>2022-11-22T13:38:39Z</time>
      </trkpt>
      <trkpt lat="43.55426" lon="5.37125">
        <ele>296</ele>
        <time>2022-11-22T13:38:59Z</time>
      </trkpt>
      <trkpt lat="43.55441" lon="5.37109">
        <ele>296</ele>
        <time>2022-11-22T13:39:20Z</time>
      </trkpt>
      <trkpt lat="43.55456" lon="5.37094">
        <ele>296</ele>
        <time>2022-11-22T13:39:40Z</time>
      </trkpt>
      <trkpt lat="43.55468" lon="5.37082">
        <ele>296</ele>
        <time>2022-11-22T13:40:01Z</time>
      </trkpt>
      <trkpt lat="43.55475" lon="5.37076">
        <ele>295</ele>
        <time>2022-11-22T13:40:21Z</time>
      </trkpt>
      <trkpt lat="43.55493" lon="5.37062">
        <ele>293</ele>
        <time>2022-11-22T13:40:42Z</time>
      </trkpt>
      <trkpt lat="43.55509" lon="5.3705">
        <ele>295</ele>
        <time>2022-11-22T13:41:02Z</time>
      </trkpt>
      <trkpt lat="43.55524" lon="5.37034">
        <ele>299</ele>
        <time>2022-11-22T13:41:23Z</time>
      </trkpt>
      <trkpt lat="43.55541" lon="5.37019">
        <ele>298</ele>
        <time>2022-11-22T13:41:43Z</time>
      </trkpt>
      <trkpt lat="43.55554" lon="5.37004">
        <ele>299</ele>
        <time>2022-11-22T13:42:03Z</time>
      </trkpt>
      <trkpt lat="43.55569" lon="5.36988">
        <ele>296</ele>
        <time>2022-11-22T13:42:24Z</time>
      </trkpt>
      <trkpt lat="43.55586" lon="5.36972">
        <ele>294</ele>
        <time>2022-11-22T13:42:45Z</time>
      </trkpt>
      <trkpt lat="43.55603" lon="5.36956">
        <ele>293</ele>
        <time>2022-11-22T13:43:06Z</time>
      </trkpt>
      <trkpt lat="43.55615" lon="5.3694">
        <ele>292</ele>
        <time>2022-11-22T13:43:26Z</time>
      </trkpt>
      <trkpt lat="43.55632" lon="5.36941">
        <ele>292</ele>
        <time>2022-11-22T13:43:47Z</time>
      </trkpt>
      <trkpt lat="43.5565" lon="5.36945">
        <ele>290</ele>
        <time>2022-11-22T13:44:07Z</time>
      </trkpt>
      <trkpt lat="43.55669" lon="5.36943">
        <ele>286</ele>
        <time>2022-11-22T13:44:28Z</time>
      </trkpt>
      <trkpt lat="43.55683" lon="5.36932">
        <ele>285</ele>
        <time>2022-11-22T13:44:48Z</time>
      </trkpt>
      <trkpt lat="43.55696" lon="5.36919">
        <ele>282</ele>
        <time>2022-11-22T13:45:09Z</time>
      </trkpt>
      <trkpt lat="43.55713" lon="5.36909">
        <ele>282</ele>
        <time>2022-11-22T13:45:29Z</time>
      </trkpt>
      <trkpt lat="43.55726" lon="5.36904">
        <ele>282</ele>
        <time>2022-11-22T13:45:50Z</time>
      </trkpt>
      <trkpt lat="43.5574" lon="5.36892">
        <ele>284</ele>
        <time>2022-11-22T13:46:11Z</time>
      </trkpt>
      <trkpt lat="43.55752" lon="5.36883">
        <ele>284</ele>
        <time>2022-11-22T13:46:31Z</time>
      </trkpt>
      <trkpt lat="43.55767" lon="5.36879">
        <ele>288</ele>
        <time>2022-11-22T13:46:52Z</time>
      </trkpt>
      <trkpt lat="43.55783" lon="5.3688">
        <ele>289</ele>
        <time>2022-11-22T13:47:12Z</time>
      </trkpt>
      <trkpt lat="43.55798" lon="5.36887">
        <ele>288</ele>
        <time>2022-11-22T13:47:33Z</time>
      </trkpt>
      <trkpt lat="43.55802" lon="5.3689">
        <ele>286</ele>
        <time>2022-11-22T13:47:53Z</time>
      </trkpt>
      <trkpt lat="43.55811" lon="5.369">
        <ele>286</ele>
        <time>2022-11-22T13:48:14Z</time>
      </trkpt>
      <trkpt lat="43.55824" lon="5.36911">
        <ele>286</ele>
        <time>2022-11-22T13:48:35Z</time>
      </trkpt>
      <trkpt lat="43.55836" lon="5.36906">
        <ele>280</ele>
        <time>2022-11-22T13:48:56Z</time>
      </trkpt>
      <trkpt lat="43.55848" lon="5.369">
        <ele>281</ele>
        <time>2022-11-22T13:49:16Z</time>
      </trkpt>
      <trkpt lat="43.55862" lon="5.3688">
        <ele>284</ele>
        <time>2022-11-22T13:49:37Z</time>
      </trkpt>
      <trkpt lat="43.55862" lon="5.36852">
        <ele>286</ele>
        <time>2022-11-22T13:49:58Z</time>
      </trkpt>
      <trkpt lat="43.5587" lon="5.36827">
        <ele>288</ele>
        <time>2022-11-22T13:50:18Z</time>
      </trkpt>
      <trkpt lat="43.55881" lon="5.36801">
        <ele>289</ele>
        <time>2022-11-22T13:50:39Z</time>
      </trkpt>
      <trkpt lat="43.55891" lon="5.36776">
        <ele>289</ele>
        <time>2022-11-22T13:50:59Z</time>
      </trkpt>
      <trkpt lat="43.55912" lon="5.36774">
        <ele>288</ele>
        <time>2022-11-22T13:51:20Z</time>
      </trkpt>
      <trkpt lat="43.55932" lon="5.3678">
        <ele>284</ele>
        <time>2022-11-22T13:51:40Z</time>
      </trkpt>
      <trkpt lat="43.5595" lon="5.36793">
        <ele>284</ele>
        <time>2022-11-22T13:52:01Z</time>
      </trkpt>
      <trkpt lat="43.55968" lon="5.36804">
        <ele>284</ele>
        <time>2022-11-22T13:52:22Z</time>
      </trkpt>
      <trkpt lat="43.55983" lon="5.36789">
        <ele>289</ele>
        <time>2022-11-22T13:52:42Z</time>
      </trkpt>
      <trkpt lat="43.55985" lon="5.36759">
        <ele>292</ele>
        <time>2022-11-22T13:53:03Z</time>
      </trkpt>
      <trkpt lat="43.55985" lon="5.36741">
        <ele>290</ele>
        <time>2022-11-22T13:53:23Z</time>
      </trkpt>
      <trkpt lat="43.55998" lon="5.36721">
        <ele>289</ele>
        <time>2022-11-22T13:53:44Z</time>
      </trkpt>
      <trkpt lat="43.56016" lon="5.3671">
        <ele>287</ele>
        <time>2022-11-22T13:54:04Z</time>
      </trkpt>
      <trkpt lat="43.56033" lon="5.36698">
        <ele>290</ele>
        <time>2022-11-22T13:54:25Z</time>
      </trkpt>
      <trkpt lat="43.5605" lon="5.36689">
        <ele>289</ele>
        <time>2022-11-22T13:54:45Z</time>
      </trkpt>
      <trkpt lat="43.56054" lon="5.36688">
        <ele>288</ele>
        <time>2022-11-22T13:55:06Z</time>
      </trkpt>
      <trkpt lat="43.5606" lon="5.3669">
        <ele>288</ele>
        <time>2022-11-22T13:55:26Z</time>
      </trkpt>
      <trkpt lat="43.56077" lon="5.36705">
        <ele>287</ele>
        <time>2022-11-22T13:55:47Z</time>
      </trkpt>
      <trkpt lat="43.56093" lon="5.36716">
        <ele>287</ele>
        <time>2022-11-22T13:56:07Z</time>
      </trkpt>
      <trkpt lat="43.56109" lon="5.36712">
        <ele>288</ele>
        <time>2022-11-22T13:56:28Z</time>
      </trkpt>
      <trkpt lat="43.56118" lon="5.36709">
        <ele>291</ele>
        <time>2022-11-22T13:56:48Z</time>
      </trkpt>
      <trkpt lat="43.56134" lon="5.36709">
        <ele>292</ele>
        <time>2022-11-22T13:57:08Z</time>
      </trkpt>
      <trkpt lat="43.56149" lon="5.36714">
        <ele>297</ele>
        <time>2022-11-22T13:57:29Z</time>
      </trkpt>
      <trkpt lat="43.56169" lon="5.36724">
        <ele>297</ele>
        <time>2022-11-22T13:57:49Z</time>
      </trkpt>
      <trkpt lat="43.56188" lon="5.36721">
        <ele>296</ele>
        <time>2022-11-22T13:58:10Z</time>
      </trkpt>
      <trkpt lat="43.56202" lon="5.36699">
        <ele>296</ele>
        <time>2022-11-22T13:58:30Z</time>
      </trkpt>
      <trkpt lat="43.56216" lon="5.36684">
        <ele>300</ele>
        <time>2022-11-22T13:58:51Z</time>
      </trkpt>
      <trkpt lat="43.56236" lon="5.36682">
        <ele>301</ele>
        <time>2022-11-22T13:59:11Z</time>
      </trkpt>
      <trkpt lat="43.56257" lon="5.36683">
        <ele>298</ele>
        <time>2022-11-22T13:59:32Z</time>
      </trkpt>
      <trkpt lat="43.56275" lon="5.36664">
        <ele>298</ele>
        <time>2022-11-22T13:59:52Z</time>
      </trkpt>
      <trkpt lat="43.56289" lon="5.36637">
        <ele>292</ele>
        <time>2022-11-22T14:00:12Z</time>
      </trkpt>
      <trkpt lat="43.56302" lon="5.36619">
        <ele>295</ele>
        <time>2022-11-22T14:00:33Z</time>
      </trkpt>
      <trkpt lat="43.56297" lon="5.36624">
        <ele>293</ele>
        <time>2022-11-22T14:00:53Z</time>
      </trkpt>
      <trkpt lat="43.56296" lon="5.36624">
        <ele>293</ele>
        <time>2022-11-22T14:01:14Z</time>
      </trkpt>
      <trkpt lat="43.56295" lon="5.36623">
        <ele>297</ele>
        <time>2022-11-22T14:01:34Z</time>
      </trkpt>
      <trkpt lat="43.56295" lon="5.36624">
        <ele>297</ele>
        <time>2022-11-22T14:01:55Z</time>
      </trkpt>
      <trkpt lat="43.56295" lon="5.36624">
        <ele>298</ele>
        <time>2022-11-22T14:02:16Z</time>
      </trkpt>
      <trkpt lat="43.56293" lon="5.36621">
        <ele>300</ele>
        <time>2022-11-22T14:02:36Z</time>
      </trkpt>
      <trkpt lat="43.56293" lon="5.36624">
        <ele>300</ele>
        <time>2022-11-22T14:02:57Z</time>
      </trkpt>
      <trkpt lat="43.56294" lon="5.36627">
        <ele>299</ele>
        <time>2022-11-22T14:03:17Z</time>
      </trkpt>
      <trkpt lat="43.56294" lon="5.36627">
        <ele>299</ele>
        <time>2022-11-22T14:03:38Z</time>
      </trkpt>
      <trkpt lat="43.56294" lon="5.36627">
        <ele>299</ele>
        <time>2022-11-22T14:03:58Z</time>
      </trkpt>
      <trkpt lat="43.56294" lon="5.36627">
        <ele>296</ele>
        <time>2022-11-22T14:04:18Z</time>
      </trkpt>
      <trkpt lat="43.56294" lon="5.36626">
        <ele>296</ele>
        <time>2022-11-22T14:04:39Z</time>
      </trkpt>
      <trkpt lat="43.56294" lon="5.36626">
        <ele>296</ele>
        <time>2022-11-22T14:04:59Z</time>
      </trkpt>
      <trkpt lat="43.56294" lon="5.36626">
        <ele>296</ele>
        <time>2022-11-22T14:05:19Z</time>
      </trkpt>
      <trkpt lat="43.56307" lon="5.36612">
        <ele>296</ele>
        <time>2022-11-22T14:05:40Z</time>
      </trkpt>
      <trkpt lat="43.56319" lon="5.366">
        <ele>296</ele>
        <time>2022-11-22T14:06:00Z</time>
      </trkpt>
      <trkpt lat="43.56332" lon="5.36584">
        <ele>298</ele>
        <time>2022-11-22T14:06:21Z</time>
      </trkpt>
      <trkpt lat="43.56345" lon="5.36567">
        <ele>297</ele>
        <time>2022-11-22T14:06:41Z</time>
      </trkpt>
      <trkpt lat="43.56359" lon="5.36552">
        <ele>302</ele>
        <time>2022-11-22T14:07:02Z</time>
      </trkpt>
      <trkpt lat="43.56375" lon="5.36546">
        <ele>299</ele>
        <time>2022-11-22T14:07:22Z</time>
      </trkpt>
      <trkpt lat="43.56393" lon="5.36543">
        <ele>302</ele>
        <time>2022-11-22T14:07:43Z</time>
      </trkpt>
      <trkpt lat="43.56414" lon="5.36544">
        <ele>306</ele>
        <time>2022-11-22T14:08:03Z</time>
      </trkpt>
      <trkpt lat="43.56431" lon="5.36544">
        <ele>301</ele>
        <time>2022-11-22T14:08:24Z</time>
      </trkpt>
      <trkpt lat="43.56449" lon="5.36543">
        <ele>302</ele>
        <time>2022-11-22T14:08:44Z</time>
      </trkpt>
      <trkpt lat="43.56466" lon="5.3654">
        <ele>305</ele>
        <time>2022-11-22T14:09:05Z</time>
      </trkpt>
      <trkpt lat="43.56483" lon="5.36529">
        <ele>306</ele>
        <time>2022-11-22T14:09:26Z</time>
      </trkpt>
      <trkpt lat="43.565" lon="5.36507">
        <ele>304</ele>
        <time>2022-11-22T14:09:46Z</time>
      </trkpt>
      <trkpt lat="43.56516" lon="5.36486">
        <ele>305</ele>
        <time>2022-11-22T14:10:07Z</time>
      </trkpt>
      <trkpt lat="43.5653" lon="5.3647">
        <ele>307</ele>
        <time>2022-11-22T14:10:27Z</time>
      </trkpt>
      <trkpt lat="43.56549" lon="5.36465">
        <ele>306</ele>
        <time>2022-11-22T14:10:48Z</time>
      </trkpt>
      <trkpt lat="43.56568" lon="5.36466">
        <ele>306</ele>
        <time>2022-11-22T14:11:08Z</time>
      </trkpt>
      <trkpt lat="43.5659" lon="5.36465">
        <ele>306</ele>
        <time>2022-11-22T14:11:29Z</time>
      </trkpt>
      <trkpt lat="43.56606" lon="5.36477">
        <ele>307</ele>
        <time>2022-11-22T14:11:49Z</time>
      </trkpt>
      <trkpt lat="43.56621" lon="5.36495">
        <ele>306</ele>
        <time>2022-11-22T14:12:10Z</time>
      </trkpt>
      <trkpt lat="43.56632" lon="5.36517">
        <ele>303</ele>
        <time>2022-11-22T14:12:30Z</time>
      </trkpt>
      <trkpt lat="43.56644" lon="5.36543">
        <ele>303</ele>
        <time>2022-11-22T14:12:51Z</time>
      </trkpt>
      <trkpt lat="43.56657" lon="5.36561">
        <ele>300</ele>
        <time>2022-11-22T14:13:11Z</time>
      </trkpt>
      <trkpt lat="43.56671" lon="5.3658">
        <ele>300</ele>
        <time>2022-11-22T14:13:32Z</time>
      </trkpt>
      <trkpt lat="43.56672" lon="5.36587">
        <ele>303</ele>
        <time>2022-11-22T14:13:53Z</time>
      </trkpt>
      <trkpt lat="43.56672" lon="5.36586">
        <ele>303</ele>
        <time>2022-11-22T14:14:13Z</time>
      </trkpt>
      <trkpt lat="43.56679" lon="5.36601">
        <ele>301</ele>
        <time>2022-11-22T14:14:34Z</time>
      </trkpt>
      <trkpt lat="43.56694" lon="5.36617">
        <ele>299</ele>
        <time>2022-11-22T14:14:54Z</time>
      </trkpt>
      <trkpt lat="43.5671" lon="5.36626">
        <ele>301</ele>
        <time>2022-11-22T14:15:15Z</time>
      </trkpt>
      <trkpt lat="43.56724" lon="5.36604">
        <ele>305</ele>
        <time>2022-11-22T14:15:35Z</time>
      </trkpt>
      <trkpt lat="43.5674" lon="5.36596">
        <ele>303</ele>
        <time>2022-11-22T14:15:55Z</time>
      </trkpt>
      <trkpt lat="43.5674" lon="5.36613">
        <ele>302</ele>
        <time>2022-11-22T14:16:15Z</time>
      </trkpt>
      <trkpt lat="43.56734" lon="5.36636">
        <ele>302</ele>
        <time>2022-11-22T14:16:36Z</time>
      </trkpt>
      <trkpt lat="43.56732" lon="5.36661">
        <ele>301</ele>
        <time>2022-11-22T14:16:57Z</time>
      </trkpt>
      <trkpt lat="43.56731" lon="5.36683">
        <ele>303</ele>
        <time>2022-11-22T14:17:18Z</time>
      </trkpt>
      <trkpt lat="43.56724" lon="5.36704">
        <ele>307</ele>
        <time>2022-11-22T14:17:38Z</time>
      </trkpt>
      <trkpt lat="43.56721" lon="5.36725">
        <ele>308</ele>
        <time>2022-11-22T14:17:59Z</time>
      </trkpt>
      <trkpt lat="43.5672" lon="5.36751">
        <ele>312</ele>
        <time>2022-11-22T14:18:19Z</time>
      </trkpt>
      <trkpt lat="43.56706" lon="5.36771">
        <ele>313</ele>
        <time>2022-11-22T14:18:39Z</time>
      </trkpt>
      <trkpt lat="43.5669" lon="5.36786">
        <ele>314</ele>
        <time>2022-11-22T14:19:00Z</time>
      </trkpt>
      <trkpt lat="43.56673" lon="5.36801">
        <ele>317</ele>
        <time>2022-11-22T14:19:20Z</time>
      </trkpt>
      <trkpt lat="43.56663" lon="5.36814">
        <ele>320</ele>
        <time>2022-11-22T14:19:41Z</time>
      </trkpt>
      <trkpt lat="43.56652" lon="5.36829">
        <ele>321</ele>
        <time>2022-11-22T14:20:01Z</time>
      </trkpt>
      <trkpt lat="43.5664" lon="5.36847">
        <ele>323</ele>
        <time>2022-11-22T14:20:22Z</time>
      </trkpt>
      <trkpt lat="43.56633" lon="5.36862">
        <ele>326</ele>
        <time>2022-11-22T14:20:42Z</time>
      </trkpt>
      <trkpt lat="43.56629" lon="5.36883">
        <ele>330</ele>
        <time>2022-11-22T14:21:03Z</time>
      </trkpt>
      <trkpt lat="43.56624" lon="5.36903">
        <ele>331</ele>
        <time>2022-11-22T14:21:23Z</time>
      </trkpt>
      <trkpt lat="43.56621" lon="5.36923">
        <ele>331</ele>
        <time>2022-11-22T14:21:43Z</time>
      </trkpt>
      <trkpt lat="43.56618" lon="5.36942">
        <ele>335</ele>
        <time>2022-11-22T14:22:04Z</time>
      </trkpt>
      <trkpt lat="43.5661" lon="5.36955">
        <ele>334</ele>
        <time>2022-11-22T14:22:24Z</time>
      </trkpt>
      <trkpt lat="43.56595" lon="5.36968">
        <ele>337</ele>
        <time>2022-11-22T14:22:45Z</time>
      </trkpt>
      <trkpt lat="43.56585" lon="5.36973">
        <ele>343</ele>
        <time>2022-11-22T14:23:05Z</time>
      </trkpt>
      <trkpt lat="43.56566" lon="5.36985">
        <ele>346</ele>
        <time>2022-11-22T14:23:26Z</time>
      </trkpt>
      <trkpt lat="43.56551" lon="5.36997">
        <ele>344</ele>
        <time>2022-11-22T14:23:46Z</time>
      </trkpt>
      <trkpt lat="43.56536" lon="5.37008">
        <ele>344</ele>
        <time>2022-11-22T14:24:07Z</time>
      </trkpt>
      <trkpt lat="43.56525" lon="5.37019">
        <ele>346</ele>
        <time>2022-11-22T14:24:27Z</time>
      </trkpt>
      <trkpt lat="43.56527" lon="5.37024">
        <ele>344</ele>
        <time>2022-11-22T14:24:48Z</time>
      </trkpt>
      <trkpt lat="43.56527" lon="5.37024">
        <ele>344</ele>
        <time>2022-11-22T14:25:08Z</time>
      </trkpt>
      <trkpt lat="43.56527" lon="5.37024">
        <ele>345</ele>
        <time>2022-11-22T14:25:29Z</time>
      </trkpt>
      <trkpt lat="43.56527" lon="5.37024">
        <ele>345</ele>
        <time>2022-11-22T14:25:49Z</time>
      </trkpt>
      <trkpt lat="43.56527" lon="5.37024">
        <ele>345</ele>
        <time>2022-11-22T14:26:09Z</time>
      </trkpt>
      <trkpt lat="43.56527" lon="5.37024">
        <ele>345</ele>
        <time>2022-11-22T14:26:30Z</time>
      </trkpt>
      <trkpt lat="43.56528" lon="5.37025">
        <ele>346</ele>
        <time>2022-11-22T14:26:50Z</time>
      </trkpt>
      <trkpt lat="43.56528" lon="5.37025">
        <ele>346</ele>
        <time>2022-11-22T14:27:11Z</time>
      </trkpt>
      <trkpt lat="43.5653" lon="5.37025">
        <ele>345</ele>
        <time>2022-11-22T14:27:31Z</time>
      </trkpt>
      <trkpt lat="43.56517" lon="5.37034">
        <ele>348</ele>
        <time>2022-11-22T14:27:52Z</time>
      </trkpt>
      <trkpt lat="43.56502" lon="5.37049">
        <ele>347</ele>
        <time>2022-11-22T14:28:12Z</time>
      </trkpt>
      <trkpt lat="43.56487" lon="5.37064">
        <ele>348</ele>
        <time>2022-11-22T14:28:33Z</time>
      </trkpt>
      <trkpt lat="43.56481" lon="5.37069">
        <ele>345</ele>
        <time>2022-11-22T14:28:53Z</time>
      </trkpt>
      <trkpt lat="43.56476" lon="5.37083">
        <ele>349</ele>
        <time>2022-11-22T14:29:13Z</time>
      </trkpt>
      <trkpt lat="43.56461" lon="5.37102">
        <ele>352</ele>
        <time>2022-11-22T14:29:34Z</time>
      </trkpt>
      <trkpt lat="43.56448" lon="5.37122">
        <ele>350</ele>
        <time>2022-11-22T14:29:54Z</time>
      </trkpt>
      <trkpt lat="43.56433" lon="5.37141">
        <ele>349</ele>
        <time>2022-11-22T14:30:15Z</time>
      </trkpt>
      <trkpt lat="43.56419" lon="5.37159">
        <ele>349</ele>
        <time>2022-11-22T14:30:35Z</time>
      </trkpt>
      <trkpt lat="43.56407" lon="5.3718">
        <ele>350</ele>
        <time>2022-11-22T14:30:56Z</time>
      </trkpt>
      <trkpt lat="43.56399" lon="5.37193">
        <ele>351</ele>
        <time>2022-11-22T14:31:16Z</time>
      </trkpt>
      <trkpt lat="43.56389" lon="5.37214">
        <ele>351</ele>
        <time>2022-11-22T14:31:37Z</time>
      </trkpt>
      <trkpt lat="43.56381" lon="5.3724">
        <ele>351</ele>
        <time>2022-11-22T14:31:57Z</time>
      </trkpt>
      <trkpt lat="43.56375" lon="5.37261">
        <ele>350</ele>
        <time>2022-11-22T14:32:18Z</time>
      </trkpt>
      <trkpt lat="43.56367" lon="5.37289">
        <ele>347</ele>
        <time>2022-11-22T14:32:38Z</time>
      </trkpt>
      <trkpt lat="43.56361" lon="5.37307">
        <ele>349</ele>
        <time>2022-11-22T14:32:59Z</time>
      </trkpt>
      <trkpt lat="43.56352" lon="5.37335">
        <ele>345</ele>
        <time>2022-11-22T14:33:20Z</time>
      </trkpt>
      <trkpt lat="43.56343" lon="5.37355">
        <ele>345</ele>
        <time>2022-11-22T14:33:40Z</time>
      </trkpt>
      <trkpt lat="43.56332" lon="5.37369">
        <ele>345</ele>
        <time>2022-11-22T14:34:01Z</time>
      </trkpt>
      <trkpt lat="43.56323" lon="5.3739">
        <ele>340</ele>
        <time>2022-11-22T14:34:21Z</time>
      </trkpt>
      <trkpt lat="43.56309" lon="5.37405">
        <ele>334</ele>
        <time>2022-11-22T14:34:42Z</time>
      </trkpt>
      <trkpt lat="43.5629" lon="5.37415">
        <ele>331</ele>
        <time>2022-11-22T14:35:02Z</time>
      </trkpt>
      <trkpt lat="43.56276" lon="5.37426">
        <ele>330</ele>
        <time>2022-11-22T14:35:23Z</time>
      </trkpt>
      <trkpt lat="43.56264" lon="5.37434">
        <ele>326</ele>
        <time>2022-11-22T14:35:44Z</time>
      </trkpt>
      <trkpt lat="43.56256" lon="5.37447">
        <ele>321</ele>
        <time>2022-11-22T14:36:04Z</time>
      </trkpt>
      <trkpt lat="43.56257" lon="5.37453">
        <ele>317</ele>
        <time>2022-11-22T14:36:25Z</time>
      </trkpt>
      <trkpt lat="43.56258" lon="5.37455">
        <ele>317</ele>
        <time>2022-11-22T14:36:45Z</time>
      </trkpt>
      <trkpt lat="43.56258" lon="5.37455">
        <ele>317</ele>
        <time>2022-11-22T14:37:06Z</time>
      </trkpt>
      <trkpt lat="43.56257" lon="5.37454">
        <ele>317</ele>
        <time>2022-11-22T14:37:26Z</time>
      </trkpt>
      <trkpt lat="43.56257" lon="5.37454">
        <ele>317</ele>
        <time>2022-11-22T14:37:47Z</time>
      </trkpt>
      <trkpt lat="43.56257" lon="5.37454">
        <ele>317</ele>
        <time>2022-11-22T14:38:07Z</time>
      </trkpt>
      <trkpt lat="43.56258" lon="5.3746">
        <ele>314</ele>
        <time>2022-11-22T14:38:28Z</time>
      </trkpt>
      <trkpt lat="43.56259" lon="5.37472">
        <ele>314</ele>
        <time>2022-11-22T14:38:48Z</time>
      </trkpt>
      <trkpt lat="43.56257" lon="5.37486">
        <ele>310</ele>
        <time>2022-11-22T14:39:09Z</time>
      </trkpt>
      <trkpt lat="43.56253" lon="5.37505">
        <ele>310</ele>
        <time>2022-11-22T14:39:29Z</time>
      </trkpt>
      <trkpt lat="43.56241" lon="5.37523">
        <ele>307</ele>
        <time>2022-11-22T14:39:50Z</time>
      </trkpt>
      <trkpt lat="43.56229" lon="5.37539">
        <ele>305</ele>
        <time>2022-11-22T14:40:10Z</time>
      </trkpt>
      <trkpt lat="43.56219" lon="5.37562">
        <ele>302</ele>
        <time>2022-11-22T14:40:31Z</time>
      </trkpt>
      <trkpt lat="43.56216" lon="5.37577">
        <ele>302</ele>
        <time>2022-11-22T14:40:52Z</time>
      </trkpt>
      <trkpt lat="43.56208" lon="5.37584">
        <ele>300</ele>
        <time>2022-11-22T14:41:12Z</time>
      </trkpt>
      <trkpt lat="43.56209" lon="5.37581">
        <ele>302</ele>
        <time>2022-11-22T14:41:33Z</time>
      </trkpt>
      <trkpt lat="43.56207" lon="5.37582">
        <ele>300</ele>
        <time>2022-11-22T14:41:53Z</time>
      </trkpt>
      <trkpt lat="43.56215" lon="5.37609">
        <ele>300</ele>
        <time>2022-11-22T14:42:14Z</time>
      </trkpt>
      <trkpt lat="43.56194" lon="5.37636">
        <ele>299</ele>
        <time>2022-11-22T14:42:34Z</time>
      </trkpt>
    </trkseg>
  </trk>
</gpx>